首页
METAR-TAF:

METAR-TAF

机场 :

布雷斯特-布列塔尼機場

布雷斯特, 法国

纬度: 48-27N, 经度: 004-25W, 海拔: 99米

当前天气观测

该预报发布于29分钟前的03:30 UTC
风速6节,风向东转东北
温度 9°C
湿度 93%
气压 1033 hPa
能見度: 6000

METAR: LFRB 250330Z AUTO 06006KT 6000 VV/// 09/08 Q1033 TEMPO 0300 FG

时间: 05:59 (03:59 UTC)

预报

该预报发布于2小时和5分钟前的01:54 UTC
预报有效从25日的 01点(UTC)到 26日的 06点(UTC)
风速5节,风向多变
能見度: 3000
轻雾
几率 40% :
短暂存在
从 25日的 01点(UTC)到 25日的 06点(UTC)
能見度: 0300
成为
从 25日的 06点(UTC)到 25日的 08点(UTC)
能见度10公里或以上
散云层高于2000英尺
成为
从 25日的 14点(UTC)到 25日的 16点(UTC)
风速10节,风向北转东北
几率 30% :
短暂存在
从 26日的 02点(UTC)到 26日的 06点(UTC)
能見度: 3000
轻雾

TAF: LFRB 250154Z 2501/2606 VRB05KT 3000 BR NSC PROB40 TEMPO 2501/2506 0300 FG VV/// BECMG 2506/2508 9999 NSW SCT020 BECMG 2514/2516 02010KT PROB30 TEMPO 2602/2606 3000 BR

超过4000个机场的气象观测和天气预报(METAR&TAF报告)。

可查询的气象台以黄色和红色小点在地图上表示。

将鼠标移到小点上方,可查看气象台名称。

然后点击查看天气观测和预报。

如需切换地图:点击带黑十字的绿色按钮放大地图;点击带横线的绿色按钮缩小地图;或者点击绿色箭头查看邻近地区的地图。


METAR-TAF: